createdAt,value
2017-08-06T00:00:15.881Z,16.12
2017-08-06T00:01:16.500Z,16.10
2017-08-06T00:02:17.122Z,16.20
2017-08-06T00:03:17.993Z,16.26
2017-08-06T00:04:18.607Z,16.21
2017-08-06T00:05:19.223Z,16.04
2017-08-06T00:06:19.841Z,16.05
2017-08-06T00:07:20.466Z,16.05
2017-08-06T00:08:21.330Z,16.17
2017-08-06T00:09:21.955Z,16.08
2017-08-06T00:10:22.568Z,16.09
2017-08-06T00:11:23.191Z,15.98
2017-08-06T00:12:23.803Z,16.09
2017-08-06T00:13:24.672Z,15.98
2017-08-06T00:14:25.295Z,16.09
2017-08-06T00:15:25.910Z,16.09
2017-08-06T00:16:26.528Z,16.01
2017-08-06T00:17:27.181Z,16.08
2017-08-06T00:18:28.102Z,16.04
2017-08-06T00:19:28.715Z,16.08
2017-08-06T00:20:29.370Z,16.01
2017-08-06T00:21:29.984Z,16.05
2017-08-06T00:22:30.606Z,16.05
2017-08-06T00:23:31.520Z,16.04
2017-08-06T00:24:32.139Z,15.98
2017-08-06T00:25:32.758Z,16.04
2017-08-06T00:26:33.375Z,15.97
2017-08-06T00:27:33.992Z,15.92
2017-08-06T00:28:34.915Z,15.92
2017-08-06T00:29:35.530Z,16.02
2017-08-06T00:30:36.146Z,15.88
2017-08-06T00:31:36.770Z,15.88
2017-08-06T00:32:37.387Z,15.83
2017-08-06T00:33:38.301Z,15.90
2017-08-06T00:34:38.925Z,15.92
2017-08-06T00:35:39.538Z,15.95
2017-08-06T00:36:40.155Z,15.90
2017-08-06T00:37:40.773Z,15.92
2017-08-06T00:38:41.648Z,15.91
2017-08-06T00:39:42.262Z,15.91
2017-08-06T00:40:42.879Z,15.91
2017-08-06T00:41:43.496Z,15.88
2017-08-06T00:42:44.119Z,15.86
2017-08-06T00:43:45.068Z,15.95
2017-08-06T00:44:45.684Z,15.86
2017-08-06T00:45:46.301Z,15.91
2017-08-06T00:46:46.926Z,15.86
2017-08-06T00:47:47.546Z,15.91
2017-08-06T00:48:48.413Z,15.86
2017-08-06T00:49:49.062Z,15.98
2017-08-06T00:50:49.677Z,15.86
2017-08-06T00:51:50.295Z,15.90
2017-08-06T00:52:50.913Z,15.90
2017-08-06T00:53:51.835Z,15.86
2017-08-06T00:54:52.447Z,15.92
2017-08-06T00:55:53.072Z,15.80
2017-08-06T00:56:53.692Z,15.72
2017-08-06T00:57:54.313Z,15.67
2017-08-06T00:58:55.176Z,15.67
2017-08-06T00:59:55.793Z,15.62
2017-08-06T01:00:56.409Z,15.57
2017-08-06T01:01:57.026Z,15.55
2017-08-06T01:02:57.644Z,15.42
2017-08-06T01:03:58.563Z,15.43
2017-08-06T01:04:59.184Z,15.42
2017-08-06T01:05:59.799Z,15.46
2017-08-06T01:07:00.421Z,15.40
2017-08-06T01:08:01.034Z,15.39
2017-08-06T01:09:01.901Z,15.47
2017-08-06T01:10:02.517Z,15.46
2017-08-06T01:11:03.169Z,15.47
2017-08-06T01:12:03.792Z,15.49
2017-08-06T01:13:04.407Z,15.49
2017-08-06T01:14:05.274Z,15.47
2017-08-06T01:15:05.891Z,15.52
2017-08-06T01:16:06.513Z,15.54
2017-08-06T01:17:07.129Z,15.49
2017-08-06T01:18:07.742Z,15.47
2017-08-06T01:19:08.609Z,15.51
2017-08-06T01:20:09.225Z,15.47
2017-08-06T01:21:09.849Z,15.52
2017-08-06T01:22:10.465Z,15.33
2017-08-06T01:23:11.082Z,15.40
2017-08-06T01:24:11.998Z,15.28
2017-08-06T01:25:12.622Z,15.19
2017-08-06T01:26:13.276Z,15.31
2017-08-06T01:27:13.894Z,15.14
2017-08-06T01:28:14.506Z,15.10
2017-08-06T01:29:15.425Z,15.11
2017-08-06T01:30:16.048Z,15.09
2017-08-06T01:31:16.668Z,15.10
2017-08-06T01:32:17.284Z,15.19
2017-08-06T01:33:17.898Z,15.22
2017-08-06T01:34:18.815Z,15.18
2017-08-06T01:35:19.470Z,15.21
2017-08-06T01:36:20.086Z,15.24
2017-08-06T01:37:20.713Z,15.21
2017-08-06T01:38:21.321Z,15.22
2017-08-06T01:39:22.186Z,15.25
2017-08-06T01:40:22.802Z,15.28
2017-08-06T01:41:23.420Z,15.31
2017-08-06T01:42:24.037Z,15.27
2017-08-06T01:43:24.652Z,15.33
2017-08-06T01:44:25.519Z,15.29
2017-08-06T01:45:26.135Z,15.33
2017-08-06T01:46:26.751Z,15.36
2017-08-06T01:47:27.368Z,15.37
2017-08-06T01:48:27.986Z,15.36
2017-08-06T01:49:28.901Z,15.39
2017-08-06T01:50:29.519Z,15.35
2017-08-06T01:51:30.137Z,15.36
2017-08-06T01:52:30.752Z,15.31
2017-08-06T01:53:31.369Z,15.35
2017-08-06T01:54:32.245Z,15.22
2017-08-06T01:55:32.863Z,15.31
2017-08-06T01:56:33.475Z,15.31
2017-08-06T01:57:34.097Z,15.33
2017-08-06T01:58:34.710Z,15.19
2017-08-06T01:59:35.576Z,15.29
2017-08-06T02:00:36.193Z,15.28
2017-08-06T02:01:36.808Z,15.28
2017-08-06T02:02:37.457Z,15.35
2017-08-06T02:03:38.074Z,15.28
2017-08-06T02:04:38.942Z,15.19
2017-08-06T02:05:39.557Z,15.29
2017-08-06T02:06:40.177Z,15.29
2017-08-06T02:07:40.799Z,15.22
2017-08-06T02:08:41.452Z,15.29
2017-08-06T02:09:42.376Z,15.24
2017-08-06T02:10:43.023Z,15.22
2017-08-06T02:11:43.646Z,15.19
2017-08-06T02:12:44.265Z,15.19
2017-08-06T02:13:44.878Z,15.24
2017-08-06T02:14:45.796Z,15.21
2017-08-06T02:15:46.417Z,15.18
2017-08-06T02:16:47.032Z,15.24
2017-08-06T02:17:47.648Z,15.22
2017-08-06T02:18:48.265Z,15.21
2017-08-06T02:19:49.182Z,15.21
2017-08-06T02:20:49.805Z,15.19
2017-08-06T02:21:50.417Z,15.19
2017-08-06T02:22:51.074Z,15.21
2017-08-06T02:23:51.688Z,15.22
2017-08-06T02:24:52.604Z,15.24
2017-08-06T02:25:53.224Z,15.21
2017-08-06T02:26:53.877Z,15.21
2017-08-06T02:27:54.495Z,15.21
2017-08-06T02:28:55.144Z,15.25
2017-08-06T02:29:56.094Z,15.18
2017-08-06T02:30:56.716Z,15.15
2017-08-06T02:31:57.329Z,15.22
2017-08-06T02:32:57.980Z,15.17
2017-08-06T02:33:58.598Z,15.14
2017-08-06T02:34:59.517Z,15.21
2017-08-06T02:36:00.132Z,15.18
2017-08-06T02:37:00.754Z,15.14
2017-08-06T02:38:01.368Z,15.18
2017-08-06T02:39:01.988Z,15.19
2017-08-06T02:40:02.890Z,15.15
2017-08-06T02:41:03.502Z,15.09
2017-08-06T02:42:04.124Z,15.19
2017-08-06T02:43:04.740Z,15.14
2017-08-06T02:44:05.357Z,15.17
2017-08-06T02:45:06.274Z,15.11
2017-08-06T02:46:06.891Z,15.06
2017-08-06T02:47:07.508Z,15.02
2017-08-06T02:48:08.123Z,15.00
2017-08-06T02:49:08.740Z,15.02
2017-08-06T02:50:09.659Z,15.02
2017-08-06T02:51:10.275Z,14.96
2017-08-06T02:52:10.892Z,14.92
2017-08-06T02:53:11.513Z,14.94
2017-08-06T02:54:12.127Z,15.03
2017-08-06T02:55:13.049Z,14.97
2017-08-06T02:56:13.662Z,15.03
2017-08-06T02:57:14.280Z,14.96
2017-08-06T02:58:14.902Z,14.89
2017-08-06T02:59:15.520Z,14.89
2017-08-06T03:00:16.382Z,14.85
2017-08-06T03:01:17.000Z,14.65
2017-08-06T03:02:17.649Z,14.69
2017-08-06T03:03:18.266Z,14.69
2017-08-06T03:04:18.888Z,14.63
2017-08-06T03:05:19.803Z,14.63
2017-08-06T03:06:20.426Z,14.68
2017-08-06T03:07:21.039Z,14.69
2017-08-06T03:08:21.655Z,14.70
2017-08-06T03:09:22.278Z,14.69
2017-08-06T03:10:23.190Z,14.68
2017-08-06T03:11:23.807Z,14.66
2017-08-06T03:12:24.424Z,14.69
2017-08-06T03:13:25.044Z,14.69
2017-08-06T03:14:25.658Z,14.72
2017-08-06T03:15:26.523Z,14.70
2017-08-06T03:16:27.174Z,14.69
2017-08-06T03:17:27.795Z,14.60
2017-08-06T03:18:28.442Z,14.53
2017-08-06T03:19:29.059Z,14.50
2017-08-06T03:20:29.975Z,14.44
2017-08-06T03:21:30.596Z,14.47
2017-08-06T03:22:31.210Z,14.53
2017-08-06T03:23:31.831Z,14.51
2017-08-06T03:24:32.445Z,14.48
2017-08-06T03:25:33.318Z,14.47
2017-08-06T03:26:33.930Z,14.45
2017-08-06T03:27:34.552Z,14.44
2017-08-06T03:28:35.165Z,14.45
2017-08-06T03:29:35.787Z,14.44
2017-08-06T03:30:36.664Z,14.44
2017-08-06T03:31:37.315Z,14.47
2017-08-06T03:32:37.930Z,14.41
2017-08-06T03:33:38.550Z,14.40
2017-08-06T03:34:39.163Z,14.40
2017-08-06T03:35:40.029Z,14.32
2017-08-06T03:36:40.646Z,14.33
2017-08-06T03:37:41.272Z,14.33
2017-08-06T03:38:41.917Z,14.30
2017-08-06T03:39:42.532Z,14.41
2017-08-06T03:40:43.398Z,14.47
2017-08-06T03:41:44.024Z,14.55
2017-08-06T03:42:44.636Z,14.47
2017-08-06T03:43:45.257Z,14.60
2017-08-06T03:44:45.870Z,14.65
2017-08-06T03:45:46.737Z,14.68
2017-08-06T03:46:47.352Z,14.70
2017-08-06T03:47:48.005Z,14.70
2017-08-06T03:48:48.616Z,14.66
2017-08-06T03:49:49.231Z,14.69
2017-08-06T03:50:50.097Z,14.68
2017-08-06T03:51:50.712Z,14.73
2017-08-06T03:52:51.329Z,14.81
2017-08-06T03:53:51.953Z,14.70
2017-08-06T03:54:52.572Z,14.77
2017-08-06T03:55:53.485Z,14.79
2017-08-06T03:56:54.110Z,14.79
2017-08-06T03:57:54.727Z,14.69
2017-08-06T03:58:55.334Z,14.82
2017-08-06T03:59:55.952Z,14.69
2017-08-06T04:00:56.902Z,14.70
2017-08-06T04:01:57.520Z,14.68
2017-08-06T04:02:58.134Z,14.62
2017-08-06T04:03:58.750Z,14.60
2017-08-06T04:04:59.372Z,14.68
2017-08-06T04:06:00.285Z,14.73
2017-08-06T04:07:00.905Z,14.62
2017-08-06T04:08:01.517Z,14.69
2017-08-06T04:09:02.135Z,14.59
2017-08-06T04:10:02.786Z,14.51
2017-08-06T04:11:03.652Z,14.47
2017-08-06T04:12:04.303Z,14.35
2017-08-06T04:13:04.921Z,14.30
2017-08-06T04:14:05.535Z,14.26
2017-08-06T04:15:06.151Z,14.22
2017-08-06T04:16:07.018Z,14.20
2017-08-06T04:17:07.640Z,14.32
2017-08-06T04:18:08.258Z,14.20
2017-08-06T04:19:08.872Z,14.22
2017-08-06T04:20:09.490Z,14.17
2017-08-06T04:21:10.391Z,14.23
2017-08-06T04:22:11.009Z,14.17
2017-08-06T04:23:11.629Z,14.10
2017-08-06T04:24:12.282Z,14.11
2017-08-06T04:25:12.894Z,14.07
2017-08-06T04:26:13.811Z,14.08
2017-08-06T04:27:14.429Z,14.14
2017-08-06T04:28:15.040Z,14.14
2017-08-06T04:29:15.662Z,14.17
2017-08-06T04:30:16.277Z,14.15
2017-08-06T04:31:17.190Z,14.20
2017-08-06T04:32:17.806Z,14.11
2017-08-06T04:33:18.423Z,14.10
2017-08-06T04:34:19.071Z,14.08
2017-08-06T04:35:19.692Z,14.00
2017-08-06T04:36:20.606Z,14.00
2017-08-06T04:37:21.223Z,14.00
2017-08-06T04:38:21.840Z,13.96
2017-08-06T04:39:22.457Z,13.99
2017-08-06T04:40:23.073Z,13.96
2017-08-06T04:41:23.972Z,14.10
2017-08-06T04:42:24.594Z,14.07
2017-08-06T04:43:25.209Z,14.14
2017-08-06T04:44:25.829Z,14.11
2017-08-06T04:45:26.477Z,14.10
2017-08-06T04:46:27.344Z,14.08
2017-08-06T04:47:27.965Z,14.04
2017-08-06T04:48:28.587Z,13.95
2017-08-06T04:49:29.202Z,13.96
2017-08-06T04:50:29.852Z,13.92
2017-08-06T04:51:30.718Z,13.90
2017-08-06T04:52:31.336Z,13.77
2017-08-06T04:53:31.951Z,13.81
2017-08-06T04:54:32.574Z,13.86
2017-08-06T04:55:33.188Z,13.96
2017-08-06T04:56:34.106Z,13.99
2017-08-06T04:57:34.723Z,14.08
2017-08-06T04:58:35.339Z,14.11
2017-08-06T04:59:35.961Z,14.18
2017-08-06T05:00:36.586Z,14.23
2017-08-06T05:01:37.443Z,14.26
2017-08-06T05:02:38.061Z,14.25
2017-08-06T05:03:38.680Z,14.37
2017-08-06T05:04:39.296Z,14.41
2017-08-06T05:05:39.912Z,14.41
2017-08-06T05:06:40.785Z,14.47
2017-08-06T05:07:41.405Z,14.48
2017-08-06T05:08:42.020Z,14.51
2017-08-06T05:09:42.637Z,14.58
2017-08-06T05:10:43.254Z,14.58
2017-08-06T05:11:44.170Z,14.65
2017-08-06T05:12:44.785Z,14.69
2017-08-06T05:13:45.404Z,14.63
2017-08-06T05:14:46.018Z,14.85
2017-08-06T05:15:46.636Z,14.82
2017-08-06T05:16:47.505Z,14.82
2017-08-06T05:17:48.124Z,14.77
2017-08-06T05:18:48.741Z,14.79
2017-08-06T05:19:49.364Z,14.79
2017-08-06T05:20:49.977Z,14.65
2017-08-06T05:21:50.932Z,14.78
2017-08-06T05:22:51.554Z,14.70
2017-08-06T05:23:52.169Z,14.78
2017-08-06T05:24:52.790Z,14.78
2017-08-06T05:25:53.405Z,14.68
2017-08-06T05:26:54.322Z,14.81
2017-08-06T05:27:54.940Z,14.77
2017-08-06T05:28:55.561Z,14.85
2017-08-06T05:29:56.177Z,14.79
2017-08-06T05:30:56.828Z,14.84
2017-08-06T05:31:57.694Z,14.85
2017-08-06T05:32:58.311Z,14.89
2017-08-06T05:33:58.931Z,14.84
2017-08-06T05:34:59.547Z,14.85
2017-08-06T05:36:00.162Z,14.70
2017-08-06T05:37:01.089Z,14.69
2017-08-06T05:38:01.706Z,14.60
2017-08-06T05:39:02.321Z,14.63
2017-08-06T05:40:02.968Z,14.68
2017-08-06T05:41:03.623Z,14.63
2017-08-06T05:42:04.538Z,14.62
2017-08-06T05:43:05.153Z,14.62
2017-08-06T05:44:05.769Z,14.66
2017-08-06T05:45:06.420Z,14.62
2017-08-06T05:46:07.036Z,14.59
2017-08-06T05:47:07.960Z,14.48
2017-08-06T05:48:08.573Z,14.51
2017-08-06T05:49:09.190Z,14.72
2017-08-06T05:50:09.807Z,14.69
2017-08-06T05:51:10.425Z,14.69
2017-08-06T05:52:11.347Z,14.81
2017-08-06T05:53:11.969Z,14.79
2017-08-06T05:54:12.583Z,14.86
2017-08-06T05:55:13.201Z,15.00
2017-08-06T05:56:13.818Z,15.07
2017-08-06T05:57:14.685Z,15.06
2017-08-06T05:58:15.305Z,15.11
2017-08-06T05:59:15.933Z,15.18
2017-08-06T06:00:16.549Z,15.19
2017-08-06T06:01:17.174Z,15.19
2017-08-06T06:02:18.089Z,15.33
2017-08-06T06:03:18.717Z,15.25
2017-08-06T06:04:19.338Z,15.28
2017-08-06T06:05:19.952Z,15.19
2017-08-06T06:06:20.569Z,15.33
2017-08-06T06:07:21.487Z,15.31
2017-08-06T06:08:22.105Z,15.31
2017-08-06T06:09:22.725Z,15.25
2017-08-06T06:10:23.340Z,15.19
2017-08-06T06:11:23.958Z,15.19
2017-08-06T06:12:24.829Z,15.19
2017-08-06T06:13:25.444Z,15.15
2017-08-06T06:14:26.060Z,15.06
2017-08-06T06:15:26.682Z,14.97
2017-08-06T06:16:27.303Z,14.86
2017-08-06T06:17:28.222Z,14.79
2017-08-06T06:18:28.885Z,14.97
2017-08-06T06:19:29.489Z,14.89
2017-08-06T06:20:30.107Z,15.02
2017-08-06T06:21:30.754Z,15.00
2017-08-06T06:22:31.677Z,14.97
2017-08-06T06:23:32.290Z,15.03
2017-08-06T06:24:32.941Z,15.06
2017-08-06T06:25:33.565Z,15.00
2017-08-06T06:26:34.187Z,14.96
2017-08-06T06:27:35.056Z,14.96
2017-08-06T06:28:35.675Z,14.92
2017-08-06T06:29:36.295Z,15.02
2017-08-06T06:30:36.946Z,15.04
2017-08-06T06:31:37.572Z,15.10
2017-08-06T06:32:38.489Z,15.11
2017-08-06T06:33:39.108Z,15.07
2017-08-06T06:34:39.727Z,15.17
2017-08-06T06:35:40.347Z,15.19
2017-08-06T06:36:40.970Z,15.31
2017-08-06T06:37:41.837Z,15.31
2017-08-06T06:38:42.463Z,15.28
2017-08-06T06:39:43.120Z,15.18
2017-08-06T06:40:43.740Z,15.17
2017-08-06T06:41:44.364Z,15.09
2017-08-06T06:42:45.230Z,15.25
2017-08-06T06:43:45.849Z,15.17
2017-08-06T06:44:46.474Z,15.18
2017-08-06T06:45:47.092Z,15.24
2017-08-06T06:46:47.712Z,15.21
2017-08-06T06:47:48.632Z,15.21
2017-08-06T06:48:49.253Z,15.21
2017-08-06T06:49:49.873Z,15.27
2017-08-06T06:50:50.494Z,15.19
2017-08-06T06:51:51.114Z,15.14
2017-08-06T06:52:51.982Z,15.04
2017-08-06T06:53:52.599Z,15.07
2017-08-06T06:54:53.226Z,15.09
2017-08-06T06:55:53.841Z,15.03
2017-08-06T06:56:54.462Z,14.97
2017-08-06T06:57:55.339Z,14.94
2017-08-06T06:58:55.956Z,14.86
2017-08-06T06:59:56.573Z,14.84
2017-08-06T07:00:57.192Z,14.70
2017-08-06T07:01:57.813Z,14.69
2017-08-06T07:02:58.739Z,14.68
2017-08-06T07:03:59.356Z,14.86
2017-08-06T07:04:59.978Z,14.91
2017-08-06T07:06:00.598Z,14.99
2017-08-06T07:07:01.219Z,15.07
2017-08-06T07:08:02.140Z,15.17
2017-08-06T07:09:02.758Z,15.25
2017-08-06T07:10:03.385Z,15.31
2017-08-06T07:11:04.004Z,15.40
2017-08-06T07:12:04.626Z,15.40
2017-08-06T07:13:05.496Z,15.55
2017-08-06T07:14:06.119Z,15.59
2017-08-06T07:15:06.742Z,15.65
2017-08-06T07:16:07.364Z,15.64
2017-08-06T07:17:07.987Z,15.76
2017-08-06T07:18:08.938Z,15.79
2017-08-06T07:19:09.562Z,15.84
2017-08-06T07:20:10.181Z,15.86
2017-08-06T07:21:10.806Z,15.86
2017-08-06T07:22:11.430Z,15.88
2017-08-06T07:23:12.294Z,15.90
2017-08-06T07:24:12.915Z,15.84
2017-08-06T07:25:13.536Z,15.80
2017-08-06T07:26:14.156Z,15.82
2017-08-06T07:27:14.783Z,15.79
2017-08-06T07:28:15.734Z,15.83
2017-08-06T07:29:16.359Z,15.72
2017-08-06T07:30:17.015Z,15.80
2017-08-06T07:31:17.635Z,15.79
2017-08-06T07:32:18.254Z,15.77
2017-08-06T07:33:19.207Z,15.77
2017-08-06T07:34:19.832Z,15.79
2017-08-06T07:35:20.458Z,15.88
2017-08-06T07:36:21.076Z,15.86
2017-08-06T07:37:21.695Z,15.92
2017-08-06T07:38:22.567Z,15.91
2017-08-06T07:39:23.226Z,15.86
2017-08-06T07:40:23.852Z,15.90
2017-08-06T07:41:24.473Z,15.92
2017-08-06T07:42:25.089Z,15.84
2017-08-06T07:43:26.060Z,15.79
2017-08-06T07:44:26.686Z,15.70
2017-08-06T07:45:27.302Z,15.70
2017-08-06T07:46:27.923Z,15.67
2017-08-06T07:47:28.541Z,15.65
2017-08-06T07:48:29.461Z,15.64
2017-08-06T07:49:30.083Z,15.67
2017-08-06T07:50:30.708Z,15.70
2017-08-06T07:51:31.329Z,15.68
2017-08-06T07:52:31.944Z,15.73
2017-08-06T07:53:32.866Z,15.68
2017-08-06T07:54:33.485Z,15.62
2017-08-06T07:55:34.105Z,15.64
2017-08-06T07:56:34.725Z,15.73
2017-08-06T07:57:35.353Z,15.77
2017-08-06T07:58:36.273Z,15.75
2017-08-06T07:59:36.891Z,15.73
2017-08-06T08:00:37.510Z,15.84
2017-08-06T08:01:38.134Z,15.92
2017-08-06T08:02:38.753Z,15.90
2017-08-06T08:03:39.623Z,16.00
2017-08-06T08:04:40.242Z,16.04
2017-08-06T08:05:40.866Z,16.01
2017-08-06T08:06:41.486Z,16.12
2017-08-06T08:07:42.108Z,16.08
2017-08-06T08:08:43.013Z,16.09
2017-08-06T08:09:43.639Z,16.12
2017-08-06T08:10:44.290Z,16.13
2017-08-06T08:11:44.911Z,16.16
2017-08-06T08:12:45.529Z,16.12
2017-08-06T08:13:46.450Z,16.12
2017-08-06T08:14:47.072Z,16.23
2017-08-06T08:15:47.692Z,16.08
2017-08-06T08:16:48.314Z,16.16
2017-08-06T08:17:48.933Z,16.23
2017-08-06T08:18:49.854Z,16.26
2017-08-06T08:19:50.510Z,16.33
2017-08-06T08:20:51.130Z,16.31
2017-08-06T08:21:51.751Z,16.38
2017-08-06T08:22:52.371Z,16.26
2017-08-06T08:23:53.298Z,16.28
2017-08-06T08:24:53.915Z,16.29
2017-08-06T08:25:54.537Z,16.33
2017-08-06T08:26:55.156Z,16.35
2017-08-06T08:27:55.782Z,16.32
2017-08-06T08:28:56.702Z,16.35
2017-08-06T08:29:57.327Z,16.38
2017-08-06T08:30:57.948Z,16.29
2017-08-06T08:31:58.570Z,16.29
2017-08-06T08:32:59.224Z,16.17
2017-08-06T08:34:00.160Z,16.33
2017-08-06T08:35:00.766Z,16.31
2017-08-06T08:36:01.386Z,16.28
2017-08-06T08:37:02.004Z,16.26
2017-08-06T08:38:02.626Z,16.10
2017-08-06T08:39:03.547Z,16.05
2017-08-06T08:40:04.168Z,16.17
2017-08-06T08:41:04.788Z,16.23
2017-08-06T08:42:05.411Z,16.21
2017-08-06T08:43:06.030Z,16.15
2017-08-06T08:44:06.949Z,16.16
2017-08-06T08:45:07.574Z,16.10
2017-08-06T08:46:08.193Z,16.16
2017-08-06T08:47:08.815Z,16.21
2017-08-06T08:48:09.439Z,16.26
2017-08-06T08:49:10.358Z,16.31
2017-08-06T08:50:10.983Z,16.31
2017-08-06T08:51:11.608Z,16.33
2017-08-06T08:52:12.259Z,16.35
2017-08-06T08:53:12.877Z,16.32
2017-08-06T08:54:13.797Z,16.33
2017-08-06T08:55:14.419Z,16.41
2017-08-06T08:56:15.040Z,16.31
2017-08-06T08:57:15.662Z,16.36
2017-08-06T08:58:16.286Z,16.41
2017-08-06T08:59:17.154Z,16.46
2017-08-06T09:00:17.774Z,16.43
2017-08-06T09:01:18.400Z,16.43
2017-08-06T09:02:19.021Z,16.39
2017-08-06T09:03:19.653Z,16.50
2017-08-06T09:04:20.577Z,16.49
2017-08-06T09:05:21.205Z,16.47
2017-08-06T09:06:21.815Z,16.51
2017-08-06T09:07:22.442Z,16.38
2017-08-06T09:08:23.058Z,16.38
2017-08-06T09:09:23.931Z,16.20
2017-08-06T09:10:24.554Z,16.13
2017-08-06T09:11:25.174Z,16.21
2017-08-06T09:12:25.824Z,16.20
2017-08-06T09:13:26.446Z,16.10
2017-08-06T09:14:27.316Z,16.09
2017-08-06T09:15:27.937Z,16.05
2017-08-06T09:16:28.565Z,16.04
2017-08-06T09:17:29.186Z,16.02
2017-08-06T09:18:29.810Z,16.12
2017-08-06T09:19:30.678Z,16.21
2017-08-06T09:20:31.298Z,16.33
2017-08-06T09:21:31.919Z,16.38
2017-08-06T09:22:32.544Z,16.47
2017-08-06T09:23:33.160Z,16.46
2017-08-06T09:24:34.063Z,16.54
2017-08-06T09:25:34.690Z,16.61
2017-08-06T09:26:35.308Z,16.69
2017-08-06T09:27:35.929Z,16.69
2017-08-06T09:28:36.554Z,16.64
2017-08-06T09:29:37.478Z,16.51
2017-08-06T09:30:38.100Z,16.41
2017-08-06T09:31:38.719Z,16.56
2017-08-06T09:32:39.340Z,16.58
2017-08-06T09:33:39.961Z,16.58
2017-08-06T09:34:40.831Z,16.69
2017-08-06T09:35:41.451Z,16.78
2017-08-06T09:36:42.080Z,16.75
2017-08-06T09:37:42.696Z,16.83
2017-08-06T09:38:43.317Z,16.71
2017-08-06T09:39:44.239Z,16.74
2017-08-06T09:40:44.864Z,16.65
2017-08-06T09:41:45.485Z,16.65
2017-08-06T09:42:46.105Z,16.61
2017-08-06T09:43:46.756Z,16.76
2017-08-06T09:44:47.679Z,16.83
2017-08-06T09:45:48.299Z,16.90
2017-08-06T09:46:48.922Z,17.04
2017-08-06T09:47:49.547Z,16.94
2017-08-06T09:48:50.166Z,16.90
2017-08-06T09:49:51.038Z,16.84
2017-08-06T09:50:51.699Z,16.74
2017-08-06T09:51:52.352Z,16.66
2017-08-06T09:52:53.006Z,16.69
2017-08-06T09:53:53.628Z,16.83
2017-08-06T09:54:54.551Z,16.87
2017-08-06T09:55:55.171Z,16.89
2017-08-06T09:56:55.792Z,16.93
2017-08-06T09:57:56.412Z,17.06
2017-08-06T09:58:57.032Z,16.91
2017-08-06T09:59:57.904Z,16.91
2017-08-06T10:00:58.525Z,16.91
2017-08-06T10:01:59.152Z,16.94
2017-08-06T10:02:59.771Z,16.93
2017-08-06T10:04:00.399Z,16.99
2017-08-06T10:05:01.357Z,17.02
2017-08-06T10:06:02.013Z,17.16
2017-08-06T10:07:02.637Z,17.16
2017-08-06T10:08:03.261Z,17.02
2017-08-06T10:09:03.881Z,17.06
2017-08-06T10:10:04.835Z,17.04
2017-08-06T10:11:05.456Z,16.99
2017-08-06T10:12:06.076Z,17.04
2017-08-06T10:13:06.697Z,17.06
2017-08-06T10:14:07.318Z,17.06
2017-08-06T10:15:08.276Z,17.02
2017-08-06T10:16:08.903Z,16.94
2017-08-06T10:17:09.527Z,16.86
2017-08-06T10:18:10.151Z,16.78
2017-08-06T10:19:10.772Z,16.66
2017-08-06T10:20:11.692Z,16.57
2017-08-06T10:21:12.313Z,16.50
2017-08-06T10:22:12.934Z,16.54
2017-08-06T10:23:13.556Z,16.43
2017-08-06T10:24:14.196Z,16.49
2017-08-06T10:25:15.102Z,16.51
2017-08-06T10:26:15.724Z,16.47
2017-08-06T10:27:16.343Z,16.42
2017-08-06T10:28:16.965Z,16.42
2017-08-06T10:29:17.590Z,16.54
2017-08-06T10:30:18.509Z,16.64
2017-08-06T10:31:19.131Z,16.54
2017-08-06T10:32:19.752Z,16.47
2017-08-06T10:33:20.412Z,16.32
2017-08-06T10:34:21.030Z,16.38
2017-08-06T10:35:21.904Z,16.36
2017-08-06T10:36:22.528Z,16.38
2017-08-06T10:37:23.187Z,16.46
2017-08-06T10:38:23.808Z,16.66
2017-08-06T10:39:24.429Z,16.83
2017-08-06T10:40:25.305Z,16.84
2017-08-06T10:41:25.924Z,16.90
2017-08-06T10:42:26.584Z,17.02
2017-08-06T10:43:27.207Z,17.22
2017-08-06T10:44:27.827Z,17.30
2017-08-06T10:45:28.749Z,17.42
2017-08-06T10:46:29.374Z,17.57
2017-08-06T10:47:29.995Z,17.56
2017-08-06T10:48:30.618Z,17.67
2017-08-06T10:49:31.271Z,17.70
2017-08-06T10:50:32.111Z,17.68
2017-08-06T10:51:32.765Z,17.70
2017-08-06T10:52:33.393Z,17.71
2017-08-06T10:53:34.011Z,17.80
2017-08-06T10:54:34.641Z,17.85
2017-08-06T10:55:35.565Z,17.92
2017-08-06T10:56:36.182Z,17.90
2017-08-06T10:57:36.813Z,17.97
2017-08-06T10:58:37.465Z,17.87
2017-08-06T10:59:38.088Z,17.59
2017-08-06T11:00:38.957Z,17.51
2017-08-06T11:01:39.579Z,17.42
2017-08-06T11:02:40.197Z,17.36
2017-08-06T11:03:40.825Z,17.42
2017-08-06T11:04:41.445Z,17.38
2017-08-06T11:05:42.365Z,17.48
2017-08-06T11:06:43.018Z,17.51
2017-08-06T11:07:43.640Z,17.48
2017-08-06T11:08:44.260Z,17.44
2017-08-06T11:09:44.883Z,17.48
2017-08-06T11:10:45.810Z,17.45
2017-08-06T11:11:46.428Z,17.34
2017-08-06T11:12:47.048Z,17.36
2017-08-06T11:13:47.675Z,17.23
2017-08-06T11:14:48.295Z,17.11
2017-08-06T11:15:49.220Z,17.09
2017-08-06T11:16:49.838Z,17.04
2017-08-06T11:17:50.493Z,16.97
2017-08-06T11:18:51.146Z,17.06
2017-08-06T11:19:51.772Z,17.14
2017-08-06T11:20:52.693Z,17.09
2017-08-06T11:21:53.314Z,17.14
2017-08-06T11:22:53.940Z,17.01
2017-08-06T11:23:54.557Z,16.84
2017-08-06T11:24:55.212Z,16.84
2017-08-06T11:25:56.085Z,16.69
2017-08-06T11:26:56.712Z,16.69
2017-08-06T11:27:57.330Z,16.74
2017-08-06T11:28:57.983Z,16.75
2017-08-06T11:29:58.634Z,16.93
2017-08-06T11:30:59.513Z,16.91
2017-08-06T11:32:00.130Z,16.90
2017-08-06T11:33:00.751Z,16.86
2017-08-06T11:34:01.374Z,17.12
2017-08-06T11:35:02.000Z,17.15
2017-08-06T11:36:02.870Z,17.14
2017-08-06T11:37:03.495Z,17.29
2017-08-06T11:38:04.113Z,17.20
2017-08-06T11:39:04.735Z,17.23
2017-08-06T11:40:05.356Z,17.24
2017-08-06T11:41:06.282Z,17.11
2017-08-06T11:42:06.900Z,17.06
2017-08-06T11:43:07.522Z,17.02
2017-08-06T11:44:08.143Z,16.87
2017-08-06T11:45:08.764Z,16.97
2017-08-06T11:46:09.635Z,16.91
2017-08-06T11:47:10.263Z,16.97
2017-08-06T11:48:10.890Z,16.96
2017-08-06T11:49:11.508Z,17.02
2017-08-06T11:50:12.127Z,17.08
2017-08-06T11:51:12.997Z,17.05
2017-08-06T11:52:13.625Z,17.04
2017-08-06T11:53:14.242Z,17.02
2017-08-06T11:54:14.871Z,16.83
2017-08-06T11:55:15.526Z,16.78
2017-08-06T11:56:16.394Z,16.64
2017-08-06T11:57:17.014Z,16.58
2017-08-06T11:58:17.640Z,16.42
2017-08-06T11:59:18.293Z,16.36
2017-08-06T12:00:18.916Z,16.35
2017-08-06T12:01:19.842Z,16.31
2017-08-06T12:02:20.459Z,16.28
2017-08-06T12:03:21.084Z,16.32
2017-08-06T12:04:21.703Z,16.38
2017-08-06T12:05:22.326Z,16.36
2017-08-06T12:06:23.246Z,16.50
2017-08-06T12:07:23.867Z,16.61
2017-08-06T12:08:24.495Z,16.71
2017-08-06T12:09:25.118Z,16.83
2017-08-06T12:10:25.737Z,16.87
2017-08-06T12:11:26.658Z,16.83
2017-08-06T12:12:27.279Z,16.90
2017-08-06T12:13:27.900Z,16.86
2017-08-06T12:14:28.529Z,16.90
2017-08-06T12:15:29.145Z,16.91
2017-08-06T12:16:30.024Z,17.02
2017-08-06T12:17:30.680Z,17.06
2017-08-06T12:18:31.308Z,17.23
2017-08-06T12:19:31.926Z,17.44
2017-08-06T12:20:32.580Z,17.49
2017-08-06T12:21:33.509Z,17.52
2017-08-06T12:22:34.129Z,17.59
2017-08-06T12:23:34.749Z,17.63
2017-08-06T12:24:35.404Z,17.70
2017-08-06T12:25:36.032Z,17.68
2017-08-06T12:26:36.900Z,17.85
2017-08-06T12:27:37.522Z,17.92
2017-08-06T12:28:38.144Z,18.00
2017-08-06T12:29:38.766Z,18.01
2017-08-06T12:30:39.393Z,18.15
2017-08-06T12:31:40.311Z,18.16
2017-08-06T12:32:40.938Z,18.15
2017-08-06T12:33:41.559Z,18.26
2017-08-06T12:34:42.180Z,18.13
2017-08-06T12:35:42.801Z,18.18
2017-08-06T12:36:43.673Z,18.15
2017-08-06T12:37:44.303Z,18.00
2017-08-06T12:38:44.927Z,17.98
2017-08-06T12:39:45.552Z,18.03
2017-08-06T12:40:46.169Z,17.98
2017-08-06T12:41:47.042Z,18.00
2017-08-06T12:42:47.666Z,18.00
2017-08-06T12:43:48.287Z,17.85
2017-08-06T12:44:48.907Z,17.71
2017-08-06T12:45:49.528Z,17.67
2017-08-06T12:46:50.448Z,17.63
2017-08-06T12:47:51.071Z,17.65
2017-08-06T12:48:51.691Z,17.49
2017-08-06T12:49:52.318Z,17.34
2017-08-06T12:50:52.936Z,17.31
2017-08-06T12:51:53.809Z,17.27
2017-08-06T12:52:54.434Z,17.31
2017-08-06T12:53:55.060Z,17.22
2017-08-06T12:54:55.677Z,17.20
2017-08-06T12:55:56.298Z,17.16
2017-08-06T12:56:57.219Z,17.22
2017-08-06T12:57:57.839Z,17.24
2017-08-06T12:58:58.464Z,17.31
2017-08-06T12:59:59.085Z,17.38
2017-08-06T13:00:59.712Z,17.29